Clifftop, West Virginia
Current Conditions -  °F | °C
As of 6:51 AM on Thursday 18 Dec 2014 (Local Time) from KBKW Reporting Station
Overcast Overcast  
Wind Chill: 18°   Ceiling: 1400
Heat Index: 26°   Visibility: 10mi
Dew Point: 19°   Wind: 8mph
Humidity: 75%   Direction: 310°NW
Pressure: 30.14"   Gusts: NA
Location:  37.8817°N, 80.9739°W
Report Text: KBKW 181151Z AUTO 31007KT 10SM OVC014 M03/M07 A3014 RMK AO2 SLP239 T10331072 11017 21033 53004
Loading
Personal Weather Stations






























Interactive Weather Map New forecast layout! Learn more

10-Day Weather Forecast

Advertisements
Track Severe Weather on mobile